createdAt,value
2018-08-17T00:00:08.407Z,7.67
2018-08-17T00:02:37.089Z,6.55
2018-08-17T00:05:05.456Z,6.20
2018-08-17T00:07:33.897Z,6.25
2018-08-17T00:10:03.600Z,5.20
2018-08-17T00:12:32.184Z,10.15
2018-08-17T00:15:00.685Z,9.25
2018-08-17T00:17:29.113Z,6.70
2018-08-17T00:19:57.484Z,5.20
2018-08-17T00:22:26.420Z,7.00
2018-08-17T00:24:54.896Z,7.85
2018-08-17T00:27:23.496Z,5.87
2018-08-17T00:29:52.476Z,5.15
2018-08-17T00:32:22.023Z,9.13
2018-08-17T00:34:50.556Z,6.28
2018-08-17T00:37:19.521Z,6.65
2018-08-17T00:39:48.377Z,8.90
2018-08-17T00:42:17.051Z,7.03
2018-08-17T00:44:45.762Z,11.57
2018-08-17T00:47:14.270Z,6.03
2018-08-17T00:49:43.527Z,4.60
2018-08-17T00:52:11.972Z,4.42
2018-08-17T00:54:40.492Z,7.30
2018-08-17T00:57:09.513Z,8.13
2018-08-17T00:59:38.245Z,6.65
2018-08-17T01:02:06.858Z,7.78
2018-08-17T01:07:40.696Z,5.35
2018-08-17T01:10:58.161Z,4.70
2018-08-17T01:13:26.921Z,6.00
2018-08-17T01:15:56.116Z,6.37
2018-08-17T01:18:25.303Z,6.10
2018-08-17T01:20:53.905Z,5.30
2018-08-17T01:23:22.693Z,6.35
2018-08-17T01:25:51.507Z,6.25
2018-08-17T01:28:20.362Z,5.42
2018-08-17T01:30:49.097Z,6.95
2018-08-17T01:33:17.634Z,5.40
2018-08-17T01:35:46.239Z,6.87
2018-08-17T01:38:14.789Z,7.53
2018-08-17T01:40:43.387Z,7.20
2018-08-17T01:43:12.108Z,6.33
2018-08-17T01:45:40.982Z,4.65
2018-08-17T01:48:09.484Z,9.20
2018-08-17T01:50:38.180Z,7.33
2018-08-17T01:53:06.997Z,5.05
2018-08-17T01:55:35.704Z,6.33
2018-08-17T01:58:04.100Z,4.97
2018-08-17T02:00:32.806Z,6.78
2018-08-17T02:03:01.517Z,7.67
2018-08-17T02:05:30.078Z,4.97
2018-08-17T02:07:58.680Z,7.03
2018-08-17T02:10:27.434Z,6.85
2018-08-17T02:12:55.868Z,6.60
2018-08-17T02:15:24.581Z,6.65
2018-08-17T02:17:53.308Z,7.97
2018-08-17T02:20:22.128Z,5.45
2018-08-17T02:22:50.928Z,7.95
2018-08-17T02:25:19.484Z,4.97
2018-08-17T02:27:48.229Z,5.12
2018-08-17T02:30:17.071Z,5.72
2018-08-17T02:32:46.058Z,6.70
2018-08-17T02:35:14.979Z,6.42
2018-08-17T02:37:43.755Z,6.05
2018-08-17T02:40:12.610Z,4.90
2018-08-17T02:42:41.234Z,4.72
2018-08-17T02:45:10.309Z,5.67
2018-08-17T02:47:39.192Z,6.12
2018-08-17T02:50:08.098Z,5.10
2018-08-17T02:52:36.892Z,5.47
2018-08-17T02:55:05.895Z,6.08
2018-08-17T02:57:35.154Z,10.25
2018-08-17T03:00:03.815Z,6.42
2018-08-17T03:02:32.643Z,8.68
2018-08-17T03:05:01.244Z,5.70
2018-08-17T03:07:30.107Z,4.75
2018-08-17T03:09:59.591Z,5.35
2018-08-17T03:12:28.251Z,6.62
2018-08-17T03:14:57.114Z,7.62
2018-08-17T03:17:26.196Z,4.30
2018-08-17T03:19:55.670Z,5.30
2018-08-17T03:22:24.251Z,9.60
2018-08-17T03:24:53.172Z,7.15
2018-08-17T03:27:22.592Z,3.92
2018-08-17T03:29:51.410Z,5.40
2018-08-17T03:32:20.299Z,7.00
2018-08-17T03:34:48.818Z,4.65
2018-08-17T03:37:17.784Z,5.60
2018-08-17T03:39:46.679Z,5.65
2018-08-17T03:42:15.629Z,4.97
2018-08-17T03:44:44.745Z,9.35
2018-08-17T03:47:13.912Z,7.75
2018-08-17T03:49:42.859Z,4.45
2018-08-17T03:52:11.585Z,5.35
2018-08-17T03:54:40.129Z,6.53
2018-08-17T03:57:09.014Z,6.65
2018-08-17T03:59:37.863Z,4.10
2018-08-17T04:02:06.995Z,4.03
2018-08-17T04:04:36.169Z,5.08
2018-08-17T04:07:05.311Z,4.50
2018-08-17T04:09:34.077Z,4.28
2018-08-17T04:12:03.154Z,4.45
2018-08-17T04:14:32.086Z,7.70
2018-08-17T04:17:00.574Z,7.28
2018-08-17T04:19:29.057Z,6.53
2018-08-17T04:21:57.657Z,7.30
2018-08-17T04:24:26.288Z,6.25
2018-08-17T04:26:55.109Z,4.67
2018-08-17T04:29:23.785Z,6.33
2018-08-17T04:31:52.417Z,9.28
2018-08-17T04:34:21.043Z,5.37
2018-08-17T04:36:49.609Z,4.50
2018-08-17T04:39:18.152Z,5.62
2018-08-17T04:41:47.032Z,5.95
2018-08-17T04:44:15.668Z,6.92
2018-08-17T04:46:44.344Z,4.83
2018-08-17T04:49:13.059Z,3.92
2018-08-17T04:51:41.763Z,5.33
2018-08-17T04:54:10.156Z,5.30
2018-08-17T04:56:38.539Z,8.65
2018-08-17T04:59:07.316Z,4.78
2018-08-17T05:01:36.154Z,4.95
2018-08-17T05:04:05.042Z,3.95
2018-08-17T05:06:33.530Z,5.70
2018-08-17T05:09:02.183Z,4.37
2018-08-17T05:11:30.961Z,7.33
2018-08-17T05:13:59.541Z,6.45
2018-08-17T05:16:28.515Z,4.85
2018-08-17T05:18:57.333Z,6.33
2018-08-17T05:21:25.845Z,5.83
2018-08-17T05:23:54.420Z,7.62
2018-08-17T05:26:23.228Z,4.45
2018-08-17T05:28:52.172Z,5.03
2018-08-17T05:31:20.732Z,7.22
2018-08-17T05:33:49.387Z,5.85
2018-08-17T05:36:17.952Z,7.65
2018-08-17T05:38:46.729Z,7.05
2018-08-17T05:41:15.712Z,7.70
2018-08-17T05:43:44.371Z,6.12
2018-08-17T05:46:12.953Z,4.45
2018-08-17T05:48:41.378Z,7.58
2018-08-17T05:51:10.101Z,5.47
2018-08-17T05:53:39.028Z,7.10
2018-08-17T05:56:07.810Z,7.37
2018-08-17T05:58:36.244Z,5.30
2018-08-17T06:01:04.891Z,6.28
2018-08-17T06:03:33.275Z,4.28
2018-08-17T06:06:02.106Z,5.58
2018-08-17T06:08:30.555Z,7.87
2018-08-17T06:10:59.417Z,7.17
2018-08-17T06:13:28.188Z,9.40
2018-08-17T06:15:57.140Z,6.78
2018-08-17T06:18:25.744Z,8.95
2018-08-17T06:20:54.563Z,9.65
2018-08-17T06:23:23.253Z,8.98
2018-08-17T06:25:51.807Z,10.45
2018-08-17T06:28:20.318Z,8.30
2018-08-17T06:30:48.828Z,8.58
2018-08-17T06:33:17.281Z,11.20
2018-08-17T06:35:45.716Z,12.25
2018-08-17T06:38:14.389Z,10.80
2018-08-17T06:40:42.894Z,9.40
2018-08-17T06:43:12.098Z,9.45
2018-08-17T06:45:41.021Z,8.00
2018-08-17T06:48:09.856Z,9.63
2018-08-17T06:50:38.265Z,10.30
2018-08-17T06:53:07.052Z,11.97
2018-08-17T06:55:36.736Z,11.05
2018-08-17T06:58:05.838Z,15.70
2018-08-17T07:00:34.744Z,11.80
2018-08-17T07:03:03.566Z,12.23
2018-08-17T07:05:32.397Z,11.15
2018-08-17T07:08:00.923Z,10.40
2018-08-17T07:10:29.956Z,8.33
2018-08-17T07:12:58.722Z,11.33
2018-08-17T07:15:27.367Z,13.60
2018-08-17T07:17:56.100Z,15.28
2018-08-17T07:20:25.080Z,9.10
2018-08-17T07:22:54.163Z,12.78
2018-08-17T07:25:22.873Z,10.50
2018-08-17T07:27:51.451Z,8.35
2018-08-17T07:30:19.917Z,8.50
2018-08-17T07:32:48.648Z,10.65
2018-08-17T07:35:17.256Z,12.35
2018-08-17T07:37:45.863Z,10.30
2018-08-17T07:40:14.470Z,8.63
2018-08-17T07:42:51.727Z,11.48
2018-08-17T07:45:26.961Z,9.73
2018-08-17T07:48:01.722Z,6.80
2018-08-17T07:50:31.772Z,11.60
2018-08-17T07:53:04.777Z,7.58
2018-08-17T07:55:35.158Z,8.85
2018-08-17T07:58:03.594Z,8.60
2018-08-17T08:00:32.269Z,9.13
2018-08-17T08:03:00.893Z,10.48
2018-08-17T08:05:29.332Z,8.53
2018-08-17T08:07:57.844Z,10.58
2018-08-17T08:10:45.755Z,7.08
2018-08-17T08:13:15.924Z,8.13
2018-08-17T08:15:44.632Z,9.70
2018-08-17T08:18:13.210Z,6.80
2018-08-17T08:20:43.440Z,7.25
2018-08-17T08:23:24.155Z,6.97
2018-08-17T08:25:52.641Z,7.20
2018-08-17T08:28:21.340Z,8.93
2018-08-17T08:30:49.787Z,9.53
2018-08-17T08:33:18.846Z,5.20
2018-08-17T08:35:47.876Z,7.05
2018-08-17T08:38:16.281Z,9.48
2018-08-17T08:40:45.551Z,8.28
2018-08-17T08:43:14.017Z,9.08
2018-08-17T08:45:42.486Z,6.05
2018-08-17T08:48:11.213Z,5.67
2018-08-17T08:50:39.976Z,5.58
2018-08-17T08:53:09.319Z,6.78
2018-08-17T08:55:38.001Z,6.53
2018-08-17T08:58:07.767Z,8.15
2018-08-17T09:00:36.420Z,6.03
2018-08-17T09:03:05.092Z,6.60
2018-08-17T09:05:33.530Z,5.53
2018-08-17T09:08:01.898Z,6.75
2018-08-17T09:10:30.605Z,4.42
2018-08-17T09:12:59.130Z,5.40
2018-08-17T09:15:27.573Z,7.10
2018-08-17T09:17:55.992Z,9.30
2018-08-17T09:20:24.426Z,6.03
2018-08-17T09:22:52.861Z,6.55
2018-08-17T09:25:21.381Z,4.22
2018-08-17T09:27:49.889Z,4.87
2018-08-17T09:30:18.446Z,7.65
2018-08-17T09:32:47.080Z,8.40
2018-08-17T09:35:15.514Z,8.15
2018-08-17T09:37:44.057Z,4.67
2018-08-17T09:40:12.792Z,5.37
2018-08-17T09:42:41.219Z,8.20
2018-08-17T09:45:11.562Z,3.87
2018-08-17T09:47:40.299Z,5.55
2018-08-17T09:50:10.795Z,4.60
2018-08-17T09:52:39.248Z,4.40
2018-08-17T09:55:07.624Z,4.40
2018-08-17T09:57:35.986Z,3.47
2018-08-17T10:00:05.820Z,4.40
2018-08-17T10:02:39.633Z,3.77
2018-08-17T10:05:13.589Z,4.35
2018-08-17T10:07:47.420Z,3.90
2018-08-17T10:10:25.460Z,4.35
2018-08-17T10:12:53.920Z,5.83
2018-08-17T10:15:23.567Z,4.70
2018-08-17T10:17:52.293Z,4.20
2018-08-17T10:20:21.835Z,3.15
2018-08-17T10:22:50.271Z,4.62
2018-08-17T10:25:21.917Z,3.70
2018-08-17T10:27:51.830Z,5.90
2018-08-17T10:30:21.028Z,5.62
2018-08-17T10:32:57.744Z,8.58
2018-08-17T10:35:30.504Z,3.62
2018-08-17T10:38:00.260Z,5.50
2018-08-17T10:40:28.714Z,2.75
2018-08-17T10:42:58.546Z,5.15
2018-08-17T10:45:28.529Z,4.95
2018-08-17T10:48:00.470Z,3.37
2018-08-17T10:50:34.620Z,2.25
2018-08-17T10:53:03.994Z,3.92
2018-08-17T10:55:40.916Z,4.60
2018-08-17T10:58:12.334Z,3.70
2018-08-17T11:00:41.265Z,4.22
2018-08-17T11:03:09.798Z,5.45
2018-08-17T11:05:38.105Z,3.25
2018-08-17T11:08:06.441Z,3.30
2018-08-17T11:10:34.869Z,3.10
2018-08-17T11:13:03.396Z,6.42
2018-08-17T11:15:31.899Z,4.30
2018-08-17T11:18:00.242Z,5.42
2018-08-17T11:20:28.550Z,3.17
2018-08-17T11:22:56.937Z,3.25
2018-08-17T11:25:25.576Z,2.47
2018-08-17T11:27:53.900Z,3.62
2018-08-17T11:30:22.240Z,4.33
2018-08-17T11:32:50.612Z,2.60
2018-08-17T11:35:18.954Z,6.87
2018-08-17T11:37:47.236Z,3.70
2018-08-17T11:40:15.551Z,1.85
2018-08-17T11:42:51.496Z,2.27
2018-08-17T11:45:22.173Z,3.83
2018-08-17T11:47:50.979Z,3.83
2018-08-17T11:50:20.842Z,4.92
2018-08-17T11:52:54.242Z,4.03
2018-08-17T11:55:23.548Z,7.62
2018-08-17T11:57:51.925Z,3.92
2018-08-17T12:00:20.251Z,5.12
2018-08-17T12:02:48.556Z,4.12
2018-08-17T12:05:16.868Z,3.85
2018-08-17T12:07:46.109Z,2.90
2018-08-17T12:10:14.509Z,3.37
2018-08-17T12:12:43.746Z,3.02
2018-08-17T12:15:12.849Z,3.12
2018-08-17T12:17:41.159Z,1.80
2018-08-17T12:20:09.488Z,4.30
2018-08-17T12:22:37.862Z,4.15
2018-08-17T12:25:07.529Z,2.60
2018-08-17T12:27:35.901Z,2.70
2018-08-17T12:30:04.822Z,2.72
2018-08-17T12:32:33.122Z,2.92
2018-08-17T12:35:01.454Z,3.62
2018-08-17T12:37:29.804Z,3.08
2018-08-17T12:39:58.215Z,5.37
2018-08-17T12:42:26.629Z,5.47
2018-08-17T12:44:57.653Z,5.60
2018-08-17T12:47:25.981Z,2.65
2018-08-17T12:49:54.302Z,2.42
2018-08-17T12:52:22.746Z,4.40
2018-08-17T12:54:51.112Z,2.02
2018-08-17T12:57:19.492Z,2.62
2018-08-17T12:59:47.829Z,2.55
2018-08-17T13:02:16.168Z,2.58
2018-08-17T13:04:44.445Z,5.30
2018-08-17T13:07:12.817Z,3.58
2018-08-17T13:09:41.164Z,3.58
2018-08-17T13:12:09.844Z,3.47
2018-08-17T13:14:38.131Z,2.72
2018-08-17T13:17:06.488Z,4.33
2018-08-17T13:19:34.801Z,3.12
2018-08-17T13:22:03.219Z,2.15
2018-08-17T13:24:31.522Z,1.55
2018-08-17T13:26:59.806Z,2.50
2018-08-17T13:29:28.212Z,2.47
2018-08-17T13:31:56.540Z,1.32
2018-08-17T13:34:24.977Z,2.25
2018-08-17T13:36:53.265Z,2.98
2018-08-17T13:39:21.589Z,1.55
2018-08-17T13:41:49.913Z,6.40
2018-08-17T13:44:19.076Z,2.60
2018-08-17T13:46:47.446Z,1.22
2018-08-17T13:49:15.776Z,3.40
2018-08-17T13:51:44.140Z,2.80
2018-08-17T13:54:12.516Z,2.60
2018-08-17T13:56:40.866Z,3.92
2018-08-17T13:59:09.195Z,3.17
2018-08-17T14:01:37.488Z,3.62
2018-08-17T14:04:05.793Z,4.42
2018-08-17T14:06:34.097Z,2.95
2018-08-17T14:09:02.413Z,2.52
2018-08-17T14:11:30.789Z,2.70
2018-08-17T14:13:59.318Z,3.55
2018-08-17T14:16:28.112Z,2.33
2018-08-17T14:18:56.406Z,2.85
2018-08-17T14:21:24.901Z,3.35
2018-08-17T14:23:53.378Z,3.75
2018-08-17T14:26:21.734Z,3.70
2018-08-17T14:28:50.159Z,6.22
2018-08-17T14:31:18.505Z,5.97
2018-08-17T14:33:46.784Z,7.75
2018-08-17T14:36:15.096Z,3.42
2018-08-17T14:38:43.764Z,4.00
2018-08-17T14:41:12.075Z,3.42
2018-08-17T14:43:40.400Z,1.85
2018-08-17T14:46:09.053Z,2.50
2018-08-17T14:48:38.339Z,2.42
2018-08-17T14:51:06.683Z,2.62
2018-08-17T14:53:34.977Z,2.67
2018-08-17T14:56:03.292Z,1.57
2018-08-17T14:58:31.652Z,3.33
2018-08-17T15:00:59.961Z,2.52
2018-08-17T15:03:28.359Z,2.72
2018-08-17T15:05:56.679Z,2.47
2018-08-17T15:08:24.977Z,5.10
2018-08-17T15:10:53.314Z,2.65
2018-08-17T15:13:22.626Z,2.50
2018-08-17T15:15:50.936Z,7.20
2018-08-17T15:18:19.258Z,2.98
2018-08-17T15:20:47.562Z,4.92
2018-08-17T15:23:15.849Z,4.30
2018-08-17T15:25:44.144Z,2.20
2018-08-17T15:28:12.734Z,4.33
2018-08-17T15:30:41.826Z,4.83
2018-08-17T15:33:11.057Z,2.55
2018-08-17T15:35:39.472Z,1.52
2018-08-17T15:38:07.824Z,4.42
2018-08-17T15:40:36.173Z,3.27
2018-08-17T15:43:19.356Z,3.42
2018-08-17T15:45:48.893Z,3.85
2018-08-17T15:48:17.597Z,1.67
2018-08-17T15:50:45.892Z,3.90
2018-08-17T15:53:14.255Z,3.80
2018-08-17T15:55:42.568Z,5.35
2018-08-17T15:58:11.044Z,5.75
2018-08-17T16:00:39.448Z,4.55
2018-08-17T16:03:07.741Z,4.05
2018-08-17T16:05:36.106Z,3.58
2018-08-17T16:08:04.488Z,4.37
2018-08-17T16:10:32.766Z,3.05
2018-08-17T16:13:01.115Z,4.80
2018-08-17T16:15:30.057Z,4.92
2018-08-17T16:17:58.468Z,3.50
2018-08-17T16:20:26.776Z,3.72
2018-08-17T16:22:55.192Z,3.75
2018-08-17T16:25:23.498Z,4.12
2018-08-17T16:27:51.782Z,4.35
2018-08-17T16:30:20.156Z,3.47
2018-08-17T16:32:48.544Z,3.83
2018-08-17T16:35:16.881Z,3.98
2018-08-17T16:37:47.157Z,2.35
2018-08-17T16:40:15.700Z,2.77
2018-08-17T16:42:44.217Z,2.12
2018-08-17T16:45:12.512Z,3.75
2018-08-17T16:47:40.892Z,3.42
2018-08-17T16:50:09.755Z,1.72
2018-08-17T16:52:38.160Z,2.52
2018-08-17T16:55:06.538Z,2.27
2018-08-17T16:57:35.092Z,4.45
2018-08-17T17:00:03.640Z,2.92
2018-08-17T17:02:32.007Z,4.20
2018-08-17T17:05:00.375Z,3.08
2018-08-17T17:07:30.674Z,2.33
2018-08-17T17:09:59.138Z,3.00
2018-08-17T17:12:27.748Z,2.47
2018-08-17T17:15:06.309Z,3.60
2018-08-17T17:17:34.760Z,2.22
2018-08-17T17:20:03.148Z,3.80
2018-08-17T17:22:31.562Z,2.50
2018-08-17T17:25:04.368Z,3.72
2018-08-17T17:27:33.685Z,3.87
2018-08-17T17:30:02.065Z,3.08
2018-08-17T17:32:30.635Z,2.80
2018-08-17T17:34:59.249Z,2.17
2018-08-17T17:37:27.609Z,5.83
2018-08-17T17:39:56.144Z,3.58
2018-08-17T17:42:24.892Z,3.22
2018-08-17T17:44:53.384Z,2.92
2018-08-17T17:47:21.845Z,3.00
2018-08-17T17:49:50.118Z,2.33
2018-08-17T17:52:18.519Z,2.20
2018-08-17T17:54:46.874Z,1.87
2018-08-17T17:57:15.220Z,2.00
2018-08-17T17:59:47.911Z,3.58
2018-08-17T18:02:16.429Z,3.25
2018-08-17T18:04:44.799Z,4.28
2018-08-17T18:07:13.147Z,16.73
2018-08-17T18:09:41.763Z,13.60
2018-08-17T18:12:10.093Z,4.42
2018-08-17T18:14:38.926Z,6.92
2018-08-17T18:17:08.288Z,5.72
2018-08-17T18:19:37.118Z,6.28
2018-08-17T18:22:05.553Z,3.12
2018-08-17T18:24:33.967Z,2.02
2018-08-17T18:27:02.359Z,3.22
2018-08-17T18:29:30.867Z,4.00
2018-08-17T18:31:59.221Z,3.90
2018-08-17T18:34:27.981Z,3.98
2018-08-17T18:36:56.563Z,3.47
2018-08-17T18:39:25.074Z,3.95
2018-08-17T18:41:53.645Z,5.78
2018-08-17T18:44:22.101Z,3.87
2018-08-17T18:46:50.614Z,4.55
2018-08-17T18:49:19.033Z,4.30
2018-08-17T18:51:47.415Z,4.72
2018-08-17T18:54:15.880Z,5.87
2018-08-17T18:56:44.314Z,5.05
2018-08-17T18:59:13.269Z,4.65
2018-08-17T19:01:41.722Z,4.28
2018-08-17T19:04:10.079Z,4.50
2018-08-17T19:06:38.566Z,4.47
2018-08-17T19:09:08.567Z,3.80
2018-08-17T19:11:37.281Z,6.42
2018-08-17T19:14:05.788Z,4.30
2018-08-17T19:16:34.301Z,3.80
2018-08-17T19:19:02.697Z,6.90
2018-08-17T19:21:31.092Z,5.05
2018-08-17T19:23:59.461Z,3.58
2018-08-17T19:26:27.883Z,3.35
2018-08-17T19:28:56.437Z,5.03
2018-08-17T19:31:25.242Z,4.80
2018-08-17T19:33:54.038Z,4.97
2018-08-17T19:36:22.804Z,4.50
2018-08-17T19:38:51.348Z,8.03
2018-08-17T19:41:19.745Z,5.03
2018-08-17T19:43:48.261Z,4.10
2018-08-17T19:46:16.962Z,4.08
2018-08-17T19:48:45.268Z,6.37
2018-08-17T19:51:19.710Z,5.10
2018-08-17T19:53:48.500Z,6.70
2018-08-17T19:56:17.249Z,5.20
2018-08-17T19:58:45.957Z,4.08
2018-08-17T20:01:14.447Z,6.72
2018-08-17T20:03:43.790Z,4.65
2018-08-17T20:06:12.453Z,5.28
2018-08-17T20:08:40.980Z,5.75
2018-08-17T20:11:09.814Z,5.37
2018-08-17T20:13:38.323Z,4.40
2018-08-17T20:16:15.886Z,5.78
2018-08-17T20:18:44.277Z,4.03
2018-08-17T20:21:12.763Z,3.47
2018-08-17T20:23:41.438Z,3.20
2018-08-17T20:26:10.391Z,4.42
2018-08-17T20:28:38.847Z,3.98
2018-08-17T20:31:07.330Z,4.30
2018-08-17T20:33:35.856Z,4.60
2018-08-17T20:36:04.483Z,4.22
2018-08-17T20:38:33.119Z,3.25
2018-08-17T20:41:01.652Z,3.75
2018-08-17T20:43:30.311Z,5.58
2018-08-17T20:45:59.111Z,3.75
2018-08-17T20:48:28.253Z,6.80
2018-08-17T20:50:56.780Z,2.08
2018-08-17T20:53:26.436Z,3.85
2018-08-17T20:55:56.913Z,3.85
2018-08-17T20:58:26.473Z,4.12
2018-08-17T21:00:56.439Z,3.33
2018-08-17T21:03:25.329Z,6.67
2018-08-17T21:05:54.697Z,5.33
2018-08-17T21:08:25.254Z,4.70
2018-08-17T21:10:56.399Z,3.92
2018-08-17T21:13:25.583Z,5.42
2018-08-17T21:15:56.292Z,5.42
2018-08-17T21:18:26.886Z,3.47
2018-08-17T21:20:56.483Z,6.25
2018-08-17T21:23:28.971Z,6.05
2018-08-17T21:26:01.019Z,5.35
2018-08-17T21:28:32.115Z,5.50
2018-08-17T21:31:01.040Z,3.70
2018-08-17T21:33:34.986Z,5.50
2018-08-17T21:36:07.487Z,5.75
2018-08-17T21:38:37.602Z,6.25
2018-08-17T21:41:09.390Z,4.47
2018-08-17T21:43:39.566Z,7.60
2018-08-17T21:46:09.482Z,6.53
2018-08-17T21:48:40.801Z,7.83
2018-08-17T21:51:09.457Z,4.08
2018-08-17T21:53:38.160Z,6.58
2018-08-17T21:56:07.094Z,6.45
2018-08-17T21:58:35.607Z,4.12
2018-08-17T22:01:04.384Z,10.10
2018-08-17T22:03:35.900Z,7.47
2018-08-17T22:06:05.109Z,8.40
2018-08-17T22:08:33.730Z,6.25
2018-08-17T22:11:02.622Z,4.72
2018-08-17T22:13:34.744Z,8.88
2018-08-17T22:16:03.729Z,4.30
2018-08-17T22:18:32.509Z,6.12
2018-08-17T22:21:01.181Z,6.00
2018-08-17T22:23:30.754Z,7.30
2018-08-17T22:25:59.534Z,5.70
2018-08-17T22:28:28.430Z,7.78
2018-08-17T22:30:57.272Z,8.25
2018-08-17T22:33:25.807Z,9.43
2018-08-17T22:35:54.458Z,8.60
2018-08-17T22:38:23.419Z,6.53
2018-08-17T22:40:51.965Z,6.45
2018-08-17T22:43:20.985Z,6.60
2018-08-17T22:45:49.498Z,5.85
2018-08-17T22:48:18.239Z,7.47
2018-08-17T22:50:47.280Z,9.08
2018-08-17T22:53:15.964Z,8.48
2018-08-17T22:55:44.488Z,8.23
2018-08-17T22:58:14.386Z,4.10
2018-08-17T23:00:43.181Z,5.37
2018-08-17T23:03:12.289Z,4.45
2018-08-17T23:05:41.432Z,7.33
2018-08-17T23:08:10.141Z,6.20
2018-08-17T23:10:39.196Z,6.90
2018-08-17T23:13:07.991Z,4.30
2018-08-17T23:15:36.788Z,5.28
2018-08-17T23:18:06.023Z,9.23
2018-08-17T23:20:35.702Z,6.62
2018-08-17T23:23:05.275Z,7.47
2018-08-17T23:25:34.423Z,8.43
2018-08-17T23:28:02.821Z,7.67
2018-08-17T23:30:31.680Z,9.68
2018-08-17T23:33:00.200Z,6.22
2018-08-17T23:35:28.946Z,9.28
2018-08-17T23:37:57.801Z,5.62
2018-08-17T23:40:26.885Z,8.48
2018-08-17T23:42:55.936Z,5.12
2018-08-17T23:45:24.767Z,5.22
2018-08-17T23:47:54.209Z,4.40
2018-08-17T23:50:22.805Z,6.30
2018-08-17T23:52:51.340Z,5.72
2018-08-17T23:55:20.198Z,6.45
2018-08-17T23:57:48.664Z,12.88
